Time;durP1;ratioP1;P1;durP2;ratioP2;P2;SDS_P1;SDS_P2;PMS_P1;PMS_P2;Temp;Humidity;BMP_temperature;BMP_pressure;BME280_temperature;BME280_humidity;BME280_pressure;Samples;Min_cycle;Max_cycle;Signal;HPM_P1;HPM_P2
2023/04/28 00:00:24;;;;;;;36.30;16.98;;;;;;;;;;5085021;28;20512;-74
2023/04/28 00:02:49;;;;;;;40.88;19.02;;;;;;;;;;5085628;28;20044;-74
2023/04/28 00:05:15;;;;;;;45.15;19.58;;;;;;;;;;5085106;28;20040;-74
2023/04/28 00:07:40;;;;;;;41.35;17.98;;;;;;;;;;5089879;28;20028;-74
2023/04/28 00:10:06;;;;;;;40.70;18.80;;;;;;;;;;5087577;28;20085;-74
2023/04/28 00:12:32;;;;;;;41.50;19.05;;;;;;;;;;5089285;28;20042;-74
2023/04/28 00:14:57;;;;;;;49.25;20.48;;;;;;;;;;5089240;28;20150;-74
2023/04/28 00:17:22;;;;;;;39.72;18.58;;;;;;;;;;5089377;28;20039;-74
2023/04/28 00:19:49;;;;;;;34.65;17.10;;;;;;;;;;5088639;28;20496;-74
2023/04/28 00:22:14;;;;;;;35.35;16.33;;;;;;;;;;5087341;28;20020;-74
2023/04/28 00:24:40;;;;;;;36.20;17.27;;;;;;;;;;5084081;28;20047;-74
2023/04/28 00:27:06;;;;;;;37.33;16.60;;;;;;;;;;5089832;28;20032;-74
2023/04/28 00:29:31;;;;;;;31.00;14.73;;;;;;;;;;5088849;28;20047;-74
2023/04/28 00:31:57;;;;;;;34.22;16.08;;;;;;;;;;5078295;28;20056;-74
2023/04/28 00:34:22;;;;;;;34.58;15.77;;;;;;;;;;5087782;28;20055;-74
2023/04/28 00:36:47;;;;;;;35.00;16.17;;;;;;;;;;5089339;28;20052;-74
2023/04/28 00:39:14;;;;;;;38.13;16.95;;;;;;;;;;5087024;28;20466;-74
2023/04/28 00:41:40;;;;;;;34.15;15.90;;;;;;;;;;5085680;28;20047;-74
2023/04/28 00:44:05;;;;;;;35.10;15.68;;;;;;;;;;5107221;28;20035;-74
2023/04/28 00:46:32;;;;;;;32.85;16.23;;;;;;;;;;5107693;28;20081;-74
2023/04/28 00:48:58;;;;;;;37.80;15.75;;;;;;;;;;5108532;27;20042;-74
2023/04/28 00:51:24;;;;;;;39.20;16.17;;;;;;;;;;5109183;28;20043;-74
2023/04/28 00:53:50;;;;;;;35.25;16.30;;;;;;;;;;5109000;28;20035;-74
2023/04/28 00:56:16;;;;;;;33.88;16.23;;;;;;;;;;5108806;28;20100;-74
2023/04/28 00:58:42;;;;;;;32.70;15.30;;;;;;;;;;5108847;28;20055;-74
2023/04/28 01:01:09;;;;;;;37.30;16.08;;;;;;;;;;5109357;28;20047;-74
2023/04/28 01:03:36;;;;;;;32.80;15.07;;;;;;;;;;5107486;28;20050;-74
2023/04/28 01:06:06;;;;;;;36.38;16.35;;;;;;;;;;5108923;28;20396;-74
2023/04/28 01:08:33;;;;;;;36.30;15.57;;;;;;;;;;5109014;28;20127;-74
2023/04/28 01:10:59;;;;;;;33.65;16.27;;;;;;;;;;5101291;28;20016;-74
2023/04/28 01:13:24;;;;;;;29.67;15.07;;;;;;;;;;5093772;28;20062;-74
2023/04/28 01:15:50;;;;;;;31.02;15.13;;;;;;;;;;5091928;28;20169;-74
2023/04/28 01:18:15;;;;;;;32.55;14.52;;;;;;;;;;5070876;28;20043;-74
2023/04/28 01:20:41;;;;;;;29.42;13.55;;;;;;;;;;5090613;28;20084;-74
2023/04/28 01:23:14;;;;;;;33.60;15.85;;;;;;;;;;5067974;28;20607;-74
2023/04/28 01:25:40;;;;;;;35.60;14.93;;;;;;;;;;5071537;28;20032;-74
2023/04/28 01:28:06;;;;;;;29.98;14.32;;;;;;;;;;5068058;28;20667;-74
2023/04/28 01:30:31;;;;;;;32.38;14.35;;;;;;;;;;5066588;28;20553;-74
2023/04/28 01:32:57;;;;;;;26.50;13.45;;;;;;;;;;5067804;28;20028;-74
2023/04/28 01:35:22;;;;;;;28.85;13.48;;;;;;;;;;5065945;28;20174;-74
2023/04/28 01:37:48;;;;;;;27.05;12.68;;;;;;;;;;5085185;28;20038;-74
2023/04/28 01:40:13;;;;;;;27.20;13.02;;;;;;;;;;5083615;28;20432;-74
2023/04/28 01:42:38;;;;;;;27.33;12.30;;;;;;;;;;5087201;28;20060;-74
2023/04/28 01:45:04;;;;;;;30.00;12.77;;;;;;;;;;5083276;28;20028;-74
2023/04/28 01:47:30;;;;;;;28.77;12.65;;;;;;;;;;5084931;28;20054;-74
2023/04/28 01:49:56;;;;;;;28.42;13.05;;;;;;;;;;5087259;28;20028;-74
2023/04/28 01:52:23;;;;;;;30.20;14.40;;;;;;;;;;5087706;28;20020;-74
2023/04/28 01:54:51;;;;;;;31.83;14.52;;;;;;;;;;5087147;28;20040;-74
2023/04/28 01:57:16;;;;;;;34.75;15.07;;;;;;;;;;5087341;28;20043;-74
2023/04/28 01:59:42;;;;;;;32.40;14.20;;;;;;;;;;5086906;28;20066;-74
2023/04/28 02:02:07;;;;;;;32.40;14.02;;;;;;;;;;5086205;28;20039;-74
2023/04/28 02:04:32;;;;;;;31.42;15.45;;;;;;;;;;5090455;28;20036;-74
2023/04/28 02:06:58;;;;;;;32.90;14.40;;;;;;;;;;5087261;28;20682;-74
2023/04/28 02:09:24;;;;;;;30.52;13.65;;;;;;;;;;5086853;28;20036;-74
2023/04/28 02:11:49;;;;;;;28.48;12.70;;;;;;;;;;5084462;28;20055;-74
2023/04/28 02:14:14;;;;;;;27.15;12.05;;;;;;;;;;5087105;28;20035;-74
2023/04/28 02:16:40;;;;;;;31.08;12.70;;;;;;;;;;5079164;28;20031;-74
2023/04/28 02:19:05;;;;;;;30.13;12.60;;;;;;;;;;5066702;28;20135;-74
2023/04/28 02:21:31;;;;;;;26.92;12.43;;;;;;;;;;5066055;28;20033;-74
2023/04/28 02:23:57;;;;;;;31.88;13.00;;;;;;;;;;5067192;28;20165;-74
2023/04/28 02:26:23;;;;;;;24.75;11.40;;;;;;;;;;5069654;28;20532;-74
2023/04/28 02:28:48;;;;;;;28.63;11.00;;;;;;;;;;5084065;28;20062;-74
2023/04/28 02:31:14;;;;;;;25.63;11.90;;;;;;;;;;5084142;28;20097;-74
2023/04/28 02:33:41;;;;;;;20.60;10.48;;;;;;;;;;5083341;28;20078;-74
2023/04/28 02:36:07;;;;;;;22.77;10.75;;;;;;;;;;5097395;28;20109;-74
2023/04/28 02:38:33;;;;;;;20.38;10.52;;;;;;;;;;5089727;28;20040;-74
2023/04/28 02:41:06;;;;;;;18.80;9.98;;;;;;;;;;5070127;28;20099;-74
2023/04/28 02:43:32;;;;;;;20.50;10.15;;;;;;;;;;5088213;28;20099;-74
2023/04/28 02:45:58;;;;;;;18.27;10.02;;;;;;;;;;5085611;28;20520;-74
2023/04/28 02:48:23;;;;;;;21.95;10.25;;;;;;;;;;5080728;28;20040;-74
2023/04/28 02:50:49;;;;;;;20.58;9.68;;;;;;;;;;5082329;28;20032;-74
2023/04/28 02:53:15;;;;;;;22.70;10.38;;;;;;;;;;5104893;28;20035;-74
2023/04/28 02:55:40;;;;;;;21.38;10.45;;;;;;;;;;5105827;28;20436;-74
2023/04/28 02:58:05;;;;;;;18.08;9.05;;;;;;;;;;5105982;28;20047;-74
2023/04/28 03:00:31;;;;;;;18.10;9.38;;;;;;;;;;5087218;28;20044;-74
2023/04/28 03:02:57;;;;;;;19.58;8.35;;;;;;;;;;5086709;28;20028;-74
2023/04/28 03:05:22;;;;;;;19.27;8.85;;;;;;;;;;5086222;28;20505;-74
2023/04/28 03:07:48;;;;;;;18.67;8.60;;;;;;;;;;5087575;28;20028;-74
2023/04/28 03:10:13;;;;;;;15.70;7.93;;;;;;;;;;5086430;28;20063;-74
2023/04/28 03:12:38;;;;;;;18.35;7.82;;;;;;;;;;5085683;28;20394;-74
2023/04/28 03:15:07;;;;;;;13.65;7.32;;;;;;;;;;5084109;28;20060;-74
2023/04/28 03:17:32;;;;;;;15.73;6.93;;;;;;;;;;5082911;28;20040;-74
2023/04/28 03:19:58;;;;;;;11.00;6.03;;;;;;;;;;5103714;28;20438;-74
2023/04/28 03:22:23;;;;;;;14.65;6.40;;;;;;;;;;5106471;28;20496;-74
2023/04/28 03:24:48;;;;;;;16.63;6.93;;;;;;;;;;5106307;28;20517;-74
2023/04/28 03:27:14;;;;;;;13.45;6.30;;;;;;;;;;5098339;28;20044;-74
2023/04/28 03:29:39;;;;;;;12.95;7.00;;;;;;;;;;5079622;28;20123;-74
2023/04/28 03:32:05;;;;;;;14.50;6.38;;;;;;;;;;5080053;28;20024;-74
2023/04/28 03:34:30;;;;;;;12.95;6.47;;;;;;;;;;5087065;28;20065;-74
2023/04/28 03:36:56;;;;;;;11.65;6.18;;;;;;;;;;5085221;28;20124;-74
2023/04/28 03:39:21;;;;;;;10.05;5.65;;;;;;;;;;5073688;28;20036;-74
2023/04/28 03:41:47;;;;;;;10.02;5.18;;;;;;;;;;5088499;28;20582;-74
2023/04/28 03:44:12;;;;;;;15.40;6.13;;;;;;;;;;5088514;28;20028;-74
2023/04/28 03:46:39;;;;;;;11.65;5.63;;;;;;;;;;5087802;28;20036;-74
2023/04/28 03:49:05;;;;;;;7.80;4.75;;;;;;;;;;5087278;28;20032;-74
2023/04/28 03:51:31;;;;;;;12.20;5.68;;;;;;;;;;5088021;28;20112;-74
2023/04/28 03:53:57;;;;;;;10.48;5.55;;;;;;;;;;5085306;28;20040;-74
2023/04/28 03:56:23;;;;;;;12.95;5.35;;;;;;;;;;5070888;28;20040;-74
2023/04/28 03:58:48;;;;;;;9.88;5.63;;;;;;;;;;5080576;28;20052;-74
2023/04/28 04:01:13;;;;;;;9.82;5.35;;;;;;;;;;5077306;28;20467;-73
2023/04/28 04:03:39;;;;;;;9.48;5.65;;;;;;;;;;5074496;28;20062;-74
2023/04/28 04:06:05;;;;;;;12.00;5.93;;;;;;;;;;5093639;28;20042;-74
2023/04/28 04:08:32;;;;;;;11.43;5.38;;;;;;;;;;5089460;28;20543;-74
2023/04/28 04:10:57;;;;;;;11.80;5.80;;;;;;;;;;5089283;28;20515;-74
2023/04/28 04:13:23;;;;;;;12.68;6.28;;;;;;;;;;5089557;28;20028;-74
2023/04/28 04:15:49;;;;;;;13.20;6.93;;;;;;;;;;5088057;28;20036;-74
2023/04/28 04:18:15;;;;;;;12.90;6.55;;;;;;;;;;5086912;28;20044;-74
2023/04/28 04:20:40;;;;;;;11.68;6.20;;;;;;;;;;5087829;28;20420;-74
2023/04/28 04:23:06;;;;;;;13.27;6.55;;;;;;;;;;5089620;28;20039;-74
2023/04/28 04:25:31;;;;;;;15.65;7.35;;;;;;;;;;5089242;28;20032;-74
2023/04/28 04:27:58;;;;;;;15.88;7.50;;;;;;;;;;5089893;28;20058;-74
2023/04/28 04:30:23;;;;;;;15.05;7.32;;;;;;;;;;5083640;28;20040;-74
2023/04/28 04:32:49;;;;;;;12.63;7.60;;;;;;;;;;5076373;28;20095;-74
2023/04/28 04:35:14;;;;;;;17.27;8.15;;;;;;;;;;5089437;28;20493;-74
2023/04/28 04:37:40;;;;;;;16.73;6.97;;;;;;;;;;5088943;28;20404;-74
2023/04/28 04:40:06;;;;;;;16.40;8.60;;;;;;;;;;5079803;28;20813;-74
2023/04/28 04:42:31;;;;;;;16.70;8.63;;;;;;;;;;5067697;28;20040;-74
2023/04/28 04:44:57;;;;;;;19.38;9.10;;;;;;;;;;5068384;28;20036;-75
2023/04/28 04:47:22;;;;;;;16.95;8.35;;;;;;;;;;5069174;28;20067;-74
2023/04/28 04:49:49;;;;;;;20.05;8.98;;;;;;;;;;5068294;28;20047;-75
2023/04/28 04:52:14;;;;;;;17.50;8.85;;;;;;;;;;5068814;28;20028;-74
2023/04/28 04:54:40;;;;;;;19.52;9.45;;;;;;;;;;5068361;28;20426;-74
2023/04/28 04:57:05;;;;;;;18.17;8.43;;;;;;;;;;5084041;28;20036;-74
2023/04/28 04:59:31;;;;;;;19.23;8.75;;;;;;;;;;5081209;28;20536;-73
2023/04/28 05:01:57;;;;;;;21.15;8.52;;;;;;;;;;5093406;28;20149;-74
2023/04/28 05:04:22;;;;;;;18.00;8.38;;;;;;;;;;5088634;28;20492;-74
2023/04/28 05:06:47;;;;;;;16.42;7.35;;;;;;;;;;5089021;28;20565;-75
2023/04/28 05:09:13;;;;;;;14.32;7.55;;;;;;;;;;5085424;28;20115;-74
2023/04/28 05:11:38;;;;;;;16.13;6.75;;;;;;;;;;5087600;28;20024;-74
2023/04/28 05:14:03;;;;;;;15.60;7.80;;;;;;;;;;5087372;28;20062;-75
2023/04/28 05:16:29;;;;;;;13.93;6.40;;;;;;;;;;5087843;28;20481;-74
2023/04/28 05:18:55;;;;;;;12.52;6.53;;;;;;;;;;5095302;28;20416;-74
2023/04/28 05:21:20;;;;;;;13.68;6.78;;;;;;;;;;5097037;28;20068;-74
2023/04/28 05:23:46;;;;;;;10.43;5.35;;;;;;;;;;5093876;28;20104;-74
2023/04/28 05:26:11;;;;;;;12.20;6.18;;;;;;;;;;5088186;28;20088;-74
2023/04/28 05:28:39;;;;;;;10.15;5.55;;;;;;;;;;5088744;28;20635;-74
2023/04/28 05:31:05;;;;;;;11.98;5.38;;;;;;;;;;5081725;28;20032;-74
2023/04/28 05:33:30;;;;;;;12.90;6.10;;;;;;;;;;5080176;28;20032;-74
2023/04/28 05:35:55;;;;;;;10.15;5.50;;;;;;;;;;5091808;28;20047;-74
2023/04/28 05:38:21;;;;;;;9.85;5.18;;;;;;;;;;5085796;28;20132;-74
2023/04/28 05:40:46;;;;;;;9.45;5.32;;;;;;;;;;5088583;28;20099;-74
2023/04/28 05:43:11;;;;;;;9.57;5.38;;;;;;;;;;5087887;28;20426;-74
2023/04/28 05:45:37;;;;;;;11.40;5.88;;;;;;;;;;5086371;28;20209;-74
2023/04/28 05:48:03;;;;;;;8.82;4.97;;;;;;;;;;5086072;28;20028;-74
2023/04/28 05:50:29;;;;;;;8.98;5.07;;;;;;;;;;5087399;28;20508;-74
2023/04/28 05:52:55;;;;;;;8.65;4.53;;;;;;;;;;5088343;28;20037;-74
2023/04/28 05:55:20;;;;;;;7.53;4.13;;;;;;;;;;5083828;28;20019;-72
2023/04/28 05:57:46;;;;;;;8.25;4.32;;;;;;;;;;5082185;28;20059;-73
2023/04/28 06:00:12;;;;;;;8.25;4.80;;;;;;;;;;5088022;28;20088;-72
2023/04/28 06:02:37;;;;;;;8.50;5.03;;;;;;;;;;5072410;28;20934;-73
2023/04/28 06:05:03;;;;;;;8.95;4.57;;;;;;;;;;5093853;28;20149;-74
2023/04/28 06:07:29;;;;;;;8.65;4.80;;;;;;;;;;5076147;28;20033;-74
2023/04/28 06:09:54;;;;;;;7.85;4.32;;;;;;;;;;5085796;28;20059;-74
2023/04/28 06:12:19;;;;;;;7.53;4.57;;;;;;;;;;5084121;28;20101;-74
2023/04/28 06:14:45;;;;;;;10.23;4.85;;;;;;;;;;5084420;28;20044;-74
2023/04/28 06:17:10;;;;;;;8.25;4.28;;;;;;;;;;5085599;28;20039;-74
2023/04/28 06:19:35;;;;;;;9.25;4.50;;;;;;;;;;5087353;28;20032;-73
2023/04/28 06:22:01;;;;;;;8.93;4.85;;;;;;;;;;5084670;28;20036;-74
2023/04/28 06:24:26;;;;;;;7.60;4.30;;;;;;;;;;5081343;28;20119;-74
2023/04/28 06:26:51;;;;;;;8.38;4.72;;;;;;;;;;5074887;28;20043;-75
2023/04/28 06:29:19;;;;;;;6.43;4.15;;;;;;;;;;5086737;28;20481;-75
2023/04/28 06:31:44;;;;;;;6.47;4.10;;;;;;;;;;5072976;28;20470;-75
2023/04/28 06:34:10;;;;;;;5.85;3.80;;;;;;;;;;5065019;28;20548;-75
2023/04/28 06:36:35;;;;;;;6.53;3.63;;;;;;;;;;5066098;28;20041;-75
2023/04/28 06:39:01;;;;;;;5.85;3.80;;;;;;;;;;5066720;28;20036;-75
2023/04/28 06:41:28;;;;;;;6.78;4.07;;;;;;;;;;5068604;28;20032;-75
2023/04/28 06:43:53;;;;;;;7.15;3.92;;;;;;;;;;5075360;28;20039;-74
2023/04/28 06:46:19;;;;;;;7.03;4.30;;;;;;;;;;5095208;28;20020;-74
2023/04/28 06:48:44;;;;;;;9.07;4.65;;;;;;;;;;5076384;28;20051;-75
2023/04/28 06:51:09;;;;;;;9.85;6.45;;;;;;;;;;5086086;28;20493;-75
2023/04/28 06:53:36;;;;;;;10.05;5.97;;;;;;;;;;5086155;28;20035;-75
2023/04/28 06:56:01;;;;;;;10.70;5.88;;;;;;;;;;5085907;28;20023;-75
2023/04/28 06:58:27;;;;;;;9.25;5.30;;;;;;;;;;5086678;28;20047;-75
2023/04/28 07:00:53;;;;;;;4.88;3.28;;;;;;;;;;5085936;28;20085;-75
2023/04/28 07:03:18;;;;;;;5.97;3.80;;;;;;;;;;5085862;28;20036;-75
2023/04/28 07:05:44;;;;;;;4.88;3.25;;;;;;;;;;5084732;28;20035;-75
2023/04/28 07:08:09;;;;;;;5.47;3.58;;;;;;;;;;5084699;28;20028;-74
2023/04/28 07:10:35;;;;;;;5.43;2.85;;;;;;;;;;5084299;28;20440;-75
2023/04/28 07:13:00;;;;;;;4.82;2.92;;;;;;;;;;5082729;28;20509;-74
2023/04/28 07:15:26;;;;;;;4.15;2.67;;;;;;;;;;5075250;28;20066;-74
2023/04/28 07:17:52;;;;;;;4.47;2.58;;;;;;;;;;5091127;28;20081;-75
2023/04/28 07:20:18;;;;;;;3.47;2.70;;;;;;;;;;5089583;28;20032;-75
2023/04/28 07:22:43;;;;;;;4.18;2.65;;;;;;;;;;5083179;28;20025;-74
2023/04/28 07:25:09;;;;;;;3.83;2.40;;;;;;;;;;5085947;28;20038;-75
2023/04/28 07:27:34;;;;;;;3.63;2.30;;;;;;;;;;5089345;28;20024;-75
2023/04/28 07:30:00;;;;;;;2.97;2.00;;;;;;;;;;5090134;28;20060;-75
2023/04/28 07:32:25;;;;;;;3.13;2.10;;;;;;;;;;5068466;28;20040;-75
2023/04/28 07:34:51;;;;;;;2.80;1.60;;;;;;;;;;5066820;28;20028;-75
2023/04/28 07:37:17;;;;;;;2.25;1.60;;;;;;;;;;5073595;28;20024;-74
2023/04/28 07:39:42;;;;;;;2.15;1.40;;;;;;;;;;5087855;28;20036;-75
2023/04/28 07:42:08;;;;;;;1.58;1.33;;;;;;;;;;5088530;28;20149;-75
2023/04/28 07:44:34;;;;;;;1.80;1.25;;;;;;;;;;5088409;28;20036;-75
2023/04/28 07:47:00;;;;;;;2.53;1.70;;;;;;;;;;5088744;28;20020;-75
2023/04/28 07:49:27;;;;;;;2.35;1.70;;;;;;;;;;5088997;28;20016;-75
2023/04/28 07:51:54;;;;;;;2.20;1.80;;;;;;;;;;5089085;28;20062;-75
2023/04/28 07:54:19;;;;;;;3.13;1.58;;;;;;;;;;5088370;28;20028;-74
2023/04/28 07:56:45;;;;;;;2.17;1.77;;;;;;;;;;5088839;28;20093;-75
2023/04/28 07:59:10;;;;;;;2.47;1.70;;;;;;;;;;5088414;28;20628;-75
2023/04/28 08:01:36;;;;;;;3.28;1.88;;;;;;;;;;5090003;28;20550;-75
2023/04/28 08:04:01;;;;;;;2.75;1.77;;;;;;;;;;5091570;28;20564;-75
2023/04/28 08:06:26;;;;;;;2.65;1.85;;;;;;;;;;5101773;28;20032;-75
2023/04/28 08:08:52;;;;;;;2.45;1.80;;;;;;;;;;5097599;28;20047;-74
2023/04/28 08:11:17;;;;;;;3.78;2.00;;;;;;;;;;5089456;28;20032;-75
2023/04/28 08:13:43;;;;;;;3.42;2.22;;;;;;;;;;5089527;28;20024;-75
2023/04/28 08:16:08;;;;;;;3.10;2.20;;;;;;;;;;5090063;28;20032;-75
2023/04/28 08:18:33;;;;;;;2.85;2.00;;;;;;;;;;5088545;28;20094;-75
2023/04/28 08:20:59;;;;;;;2.88;2.22;;;;;;;;;;5089260;28;20024;-75
2023/04/28 08:23:27;;;;;;;2.88;2.20;;;;;;;;;;5089297;28;20039;-75
2023/04/28 08:25:52;;;;;;;2.55;2.08;;;;;;;;;;5086947;28;20080;-74
2023/04/28 08:28:18;;;;;;;2.20;1.90;;;;;;;;;;5086631;28;20024;-75
2023/04/28 08:30:43;;;;;;;2.17;1.77;;;;;;;;;;5086451;28;20508;-75
2023/04/28 08:33:08;;;;;;;1.80;1.40;;;;;;;;;;5083717;28;20032;-75
2023/04/28 08:35:34;;;;;;;1.80;1.40;;;;;;;;;;5084576;28;20032;-75
2023/04/28 08:37:59;;;;;;;1.48;1.30;;;;;;;;;;5088855;28;20611;-75
2023/04/28 08:40:25;;;;;;;3.00;1.75;;;;;;;;;;5087596;28;20194;-75
2023/04/28 08:42:51;;;;;;;1.30;1.10;;;;;;;;;;5106786;28;20160;-75
2023/04/28 08:45:16;;;;;;;3.63;1.70;;;;;;;;;;5102087;27;20143;-75
2023/04/28 08:47:46;;;;;;;2.70;1.77;;;;;;;;;;5092697;28;20162;-75
2023/04/28 08:50:12;;;;;;;3.47;1.60;;;;;;;;;;5089110;28;20024;-75
2023/04/28 08:52:40;;;;;;;1.88;1.40;;;;;;;;;;5088861;28;20035;-75
2023/04/28 08:55:08;;;;;;;1.42;1.30;;;;;;;;;;5088309;28;20092;-75
2023/04/28 08:57:37;;;;;;;1.50;1.30;;;;;;;;;;5088953;28;20032;-74
2023/04/28 09:00:03;;;;;;;1.25;1.00;;;;;;;;;;5077848;28;20064;-74
2023/04/28 09:02:28;;;;;;;1.00;0.90;;;;;;;;;;5083463;28;20074;-74
2023/04/28 09:04:53;;;;;;;1.25;0.90;;;;;;;;;;5084964;28;20400;-75
2023/04/28 09:07:19;;;;;;;0.80;0.80;;;;;;;;;;5086628;28;20106;-75
2023/04/28 09:09:44;;;;;;;0.88;0.82;;;;;;;;;;5087067;28;20035;-75
2023/04/28 09:12:10;;;;;;;1.23;0.77;;;;;;;;;;5087902;28;20032;-75
2023/04/28 09:14:37;;;;;;;1.30;0.85;;;;;;;;;;5087214;28;20516;-75
2023/04/28 09:17:09;;;;;;;1.60;0.70;;;;;;;;;;5088276;28;20579;-75
2023/04/28 09:19:36;;;;;;;1.90;0.82;;;;;;;;;;5087166;28;20111;-75
2023/04/28 09:22:03;;;;;;;0.88;0.80;;;;;;;;;;5085872;28;20476;-75
2023/04/28 09:24:38;;;;;;;1.00;0.90;;;;;;;;;;5083033;28;20044;-75
2023/04/28 09:27:06;;;;;;;1.58;1.33;;;;;;;;;;5085310;28;20024;-74
2023/04/28 09:29:32;;;;;;;1.75;1.10;;;;;;;;;;5110454;28;20031;-74
2023/04/28 09:32:17;;;;;;;0.70;0.70;;;;;;;;;;5104229;28;20137;-74
2023/04/28 09:34:44;;;;;;;1.10;0.90;;;;;;;;;;5084211;28;20015;-74
2023/04/28 09:37:18;;;;;;;1.75;1.20;;;;;;;;;;5088131;28;20075;-74
2023/04/28 09:39:45;;;;;;;4.60;1.00;;;;;;;;;;5085249;28;20044;-74
2023/04/28 09:42:31;;;;;;;1.63;1.20;;;;;;;;;;5079032;28;20458;-74
2023/04/28 09:44:56;;;;;;;2.65;1.20;;;;;;;;;;5084910;28;20032;-74
2023/04/28 09:47:22;;;;;;;1.42;1.13;;;;;;;;;;5086608;28;20039;-74
2023/04/28 09:49:55;;;;;;;2.10;1.10;;;;;;;;;;5086941;28;20196;-74
2023/04/28 09:52:21;;;;;;;1.77;1.52;;;;;;;;;;5085272;28;20023;-74
2023/04/28 09:54:49;;;;;;;1.98;1.20;;;;;;;;;;5077655;28;20032;-74
2023/04/28 09:57:15;;;;;;;2.80;1.42;;;;;;;;;;5066764;28;20037;-73
2023/04/28 09:59:45;;;;;;;4.88;1.67;;;;;;;;;;5064089;28;20037;-73
2023/04/28 10:02:11;;;;;;;2.22;1.40;;;;;;;;;;5064573;28;20036;-74
2023/04/28 10:04:37;;;;;;;2.75;1.40;;;;;;;;;;5065095;28;20028;-74
2023/04/28 10:07:03;;;;;;;2.13;1.67;;;;;;;;;;5069360;28;20035;-74
2023/04/28 10:09:30;;;;;;;3.58;2.00;;;;;;;;;;5072508;28;20036;-74
2023/04/28 10:11:56;;;;;;;5.97;1.45;;;;;;;;;;5085277;28;20038;-74
2023/04/28 10:14:23;;;;;;;2.45;1.52;;;;;;;;;;5084261;28;20067;-74
2023/04/28 10:16:50;;;;;;;1.77;1.45;;;;;;;;;;5085035;28;20027;-74
2023/04/28 10:19:16;;;;;;;1.88;1.30;;;;;;;;;;5084001;28;20600;-74
2023/04/28 10:21:51;;;;;;;3.45;1.60;;;;;;;;;;5079688;28;20048;-74
2023/04/28 10:24:29;;;;;;;2.60;1.20;;;;;;;;;;5088178;28;20028;-74
2023/04/28 10:27:07;;;;;;;2.45;1.27;;;;;;;;;;5071634;28;20111;-74
2023/04/28 10:29:33;;;;;;;1.92;1.35;;;;;;;;;;5083655;28;20040;-73
2023/04/28 10:32:19;;;;;;;1.33;1.23;;;;;;;;;;5085688;28;20024;-73
2023/04/28 10:34:44;;;;;;;1.65;1.27;;;;;;;;;;5078833;28;20531;-73
2023/04/28 10:37:10;;;;;;;1.63;1.40;;;;;;;;;;5074252;28;20063;-74
2023/04/28 10:39:36;;;;;;;2.63;1.30;;;;;;;;;;5086955;28;20626;-74
2023/04/28 10:42:02;;;;;;;1.63;1.17;;;;;;;;;;5086529;28;20096;-74
2023/04/28 10:44:47;;;;;;;1.10;1.00;;;;;;;;;;5086110;28;20036;-74
2023/04/28 10:47:12;;;;;;;1.10;1.00;;;;;;;;;;5082193;28;20062;-74
2023/04/28 10:49:53;;;;;;;1.10;1.00;;;;;;;;;;5083594;28;20044;-74
2023/04/28 10:52:38;;;;;;;5.72;1.10;;;;;;;;;;5086933;28;20071;-74
2023/04/28 10:55:36;;;;;;;1.85;1.30;;;;;;;;;;5085619;28;20078;-74
2023/04/28 10:58:17;;;;;;;1.10;1.00;;;;;;;;;;5065645;28;20040;-74
2023/04/28 11:00:44;;;;;;;1.42;1.10;;;;;;;;;;5076198;28;20048;-74
2023/04/28 11:04:06;;;;;;;1.85;1.20;;;;;;;;;;5073990;28;20036;-74
2023/04/28 11:06:38;;;;;;;2.35;1.20;;;;;;;;;;5075763;28;20631;-74
2023/04/28 11:09:19;;;;;;;3.88;1.30;;;;;;;;;;5070104;28;20040;-74
2023/04/28 11:11:50;;;;;;;1.95;1.30;;;;;;;;;;5081605;28;20063;-74
2023/04/28 11:14:19;;;;;;;1.40;1.20;;;;;;;;;;5076506;28;20131;-74
2023/04/28 11:17:04;;;;;;;2.35;1.23;;;;;;;;;;5070053;28;20020;-74
2023/04/28 11:19:32;;;;;;;2.60;1.20;;;;;;;;;;5087326;28;20037;-74
2023/04/28 11:21:59;;;;;;;1.95;1.10;;;;;;;;;;5071323;28;20035;-74
2023/04/28 11:24:28;;;;;;;2.30;1.40;;;;;;;;;;5069808;28;20032;-74
2023/04/28 11:26:54;;;;;;;1.60;1.30;;;;;;;;;;5074253;28;20043;-74
2023/04/28 11:29:37;;;;;;;2.03;1.70;;;;;;;;;;5079435;28;20040;-74
2023/04/28 11:32:07;;;;;;;1.52;1.30;;;;;;;;;;5076334;28;20024;-74
2023/04/28 11:34:33;;;;;;;1.88;1.40;;;;;;;;;;5083227;28;20028;-74
2023/04/28 11:36:58;;;;;;;1.70;1.38;;;;;;;;;;5072486;28;20054;-74
2023/04/28 11:39:29;;;;;;;1.48;1.38;;;;;;;;;;5082901;28;20036;-73
2023/04/28 11:41:59;;;;;;;1.98;1.67;;;;;;;;;;5085193;28;20408;-71
2023/04/28 11:44:26;;;;;;;5.03;3.17;;;;;;;;;;5076781;28;20032;-72
2023/04/28 11:46:56;;;;;;;5.00;3.13;;;;;;;;;;5086676;28;20056;-72
2023/04/28 11:49:51;;;;;;;2.55;2.08;;;;;;;;;;5086790;28;20044;-71
2023/04/28 11:52:16;;;;;;;2.38;1.58;;;;;;;;;;5064334;28;20072;-72
2023/04/28 11:54:42;;;;;;;3.33;1.38;;;;;;;;;;5074017;28;20076;-72
2023/04/28 11:57:17;;;;;;;3.08;1.27;;;;;;;;;;5086985;28;20032;-72
2023/04/28 11:59:42;;;;;;;5.20;2.60;;;;;;;;;;5077472;28;20428;-72
2023/04/28 12:02:08;;;;;;;2.92;2.30;;;;;;;;;;5072354;28;20517;-72
2023/04/28 12:04:42;;;;;;;2.65;2.25;;;;;;;;;;5090517;28;20020;-71
2023/04/28 12:07:12;;;;;;;8.65;3.50;;;;;;;;;;5088432;28;20081;-71
2023/04/28 12:09:40;;;;;;;4.95;2.60;;;;;;;;;;5084054;28;20031;-71
2023/04/28 12:12:10;;;;;;;3.20;2.65;;;;;;;;;;5092149;28;20090;-71
2023/04/28 12:14:55;;;;;;;4.15;2.88;;;;;;;;;;5100295;28;20043;-71
2023/04/28 12:17:25;;;;;;;2.97;2.50;;;;;;;;;;5088374;28;20032;-71
2023/04/28 12:19:51;;;;;;;2.50;2.22;;;;;;;;;;5087890;28;20024;-71
2023/04/28 12:22:17;;;;;;;2.78;2.28;;;;;;;;;;5089576;28;20016;-72
2023/04/28 12:24:42;;;;;;;2.42;2.20;;;;;;;;;;5088542;28;20500;-72
2023/04/28 12:27:15;;;;;;;2.85;2.50;;;;;;;;;;5076694;28;20639;-72
2023/04/28 12:29:42;;;;;;;3.20;2.00;;;;;;;;;;5081094;28;20044;-72
2023/04/28 12:32:09;;;;;;;4.10;2.08;;;;;;;;;;5092798;28;20538;-71
2023/04/28 12:34:35;;;;;;;4.38;1.90;;;;;;;;;;5092193;28;20059;-72
2023/04/28 12:37:05;;;;;;;2.50;1.90;;;;;;;;;;5066952;28;20036;-72
2023/04/28 12:39:35;;;;;;;3.83;2.45;;;;;;;;;;5067822;28;20560;-72
2023/04/28 12:42:05;;;;;;;3.00;2.10;;;;;;;;;;5068292;28;20720;-71
2023/04/28 12:44:35;;;;;;;2.25;2.05;;;;;;;;;;5068269;28;20071;-72
2023/04/28 12:47:09;;;;;;;5.60;4.95;;;;;;;;;;5076052;28;20120;-72
2023/04/28 12:49:35;;;;;;;2.05;1.50;;;;;;;;;;5088415;28;20593;-71
2023/04/28 12:52:01;;;;;;;1.60;1.27;;;;;;;;;;5083602;28;20517;-72
2023/04/28 12:54:26;;;;;;;3.17;1.92;;;;;;;;;;5093775;28;20050;-72
2023/04/28 12:56:53;;;;;;;2.08;1.48;;;;;;;;;;5108354;28;20512;-73
2023/04/28 12:59:20;;;;;;;2.40;1.70;;;;;;;;;;5104963;28;20051;-73
2023/04/28 13:01:46;;;;;;;2.70;2.10;;;;;;;;;;5081088;28;20028;-73
2023/04/28 13:04:11;;;;;;;2.53;2.33;;;;;;;;;;5086278;28;20047;-73
2023/04/28 13:06:37;;;;;;;2.15;1.88;;;;;;;;;;5087058;28;20393;-72
2023/04/28 13:09:03;;;;;;;2.85;1.73;;;;;;;;;;5084850;28;20116;-72
2023/04/28 13:11:28;;;;;;;2.15;1.73;;;;;;;;;;5085614;28;20634;-72
2023/04/28 13:13:55;;;;;;;2.40;1.58;;;;;;;;;;5080537;28;20028;-72
2023/04/28 13:16:23;;;;;;;1.42;1.20;;;;;;;;;;5073624;28;20080;-73
2023/04/28 13:18:49;;;;;;;1.65;1.40;;;;;;;;;;5083191;28;20493;-73
2023/04/28 13:21:15;;;;;;;1.95;1.40;;;;;;;;;;5103088;28;20105;-73
2023/04/28 13:23:41;;;;;;;4.47;1.73;;;;;;;;;;5079446;28;20402;-73
2023/04/28 13:26:07;;;;;;;1.50;1.40;;;;;;;;;;5065362;28;20033;-73
2023/04/28 13:28:32;;;;;;;2.60;1.80;;;;;;;;;;5077128;28;20031;-73
2023/04/28 13:30:57;;;;;;;2.35;1.38;;;;;;;;;;5103841;28;20059;-74
2023/04/28 13:33:29;;;;;;;4.63;1.60;;;;;;;;;;5107965;27;20050;-74
2023/04/28 13:35:55;;;;;;;2.95;2.33;;;;;;;;;;5116139;28;20066;-73
2023/04/28 13:38:21;;;;;;;1.95;1.58;;;;;;;;;;5113722;28;20039;-73
2023/04/28 13:40:46;;;;;;;2.33;1.50;;;;;;;;;;5096333;28;20495;-73
2023/04/28 13:43:12;;;;;;;4.68;1.50;;;;;;;;;;5084460;28;20044;-74
2023/04/28 13:45:37;;;;;;;4.05;1.75;;;;;;;;;;5083489;28;20620;-73
2023/04/28 13:48:03;;;;;;;1.98;1.60;;;;;;;;;;5083005;28;20036;-73
2023/04/28 13:50:28;;;;;;;1.95;1.30;;;;;;;;;;5085938;28;20751;-73
2023/04/28 13:52:53;;;;;;;1.83;1.45;;;;;;;;;;5085284;28;20099;-73
2023/04/28 13:55:26;;;;;;;2.13;1.85;;;;;;;;;;5085629;28;20111;-73
2023/04/28 13:57:52;;;;;;;2.40;1.60;;;;;;;;;;5085079;28;20063;-73
2023/04/28 14:00:19;;;;;;;3.88;1.70;;;;;;;;;;5085289;28;20036;-73
2023/04/28 14:02:45;;;;;;;1.83;1.63;;;;;;;;;;5066117;28;20101;-74
2023/04/28 14:05:11;;;;;;;1.80;1.60;;;;;;;;;;5064468;28;20033;-73
2023/04/28 14:07:36;;;;;;;2.28;1.70;;;;;;;;;;5064189;28;20135;-74
2023/04/28 14:10:03;;;;;;;1.90;1.80;;;;;;;;;;5069874;28;20028;-75
2023/04/28 14:12:28;;;;;;;1.88;1.40;;;;;;;;;;5076040;28;20095;-74
2023/04/28 14:14:54;;;;;;;1.65;1.52;;;;;;;;;;5084430;28;20733;-74
2023/04/28 14:17:19;;;;;;;2.10;1.60;;;;;;;;;;5083875;28;20032;-74
2023/04/28 14:19:46;;;;;;;1.70;1.60;;;;;;;;;;5085347;28;20085;-74
2023/04/28 14:22:11;;;;;;;1.60;1.50;;;;;;;;;;5084075;28;20042;-74
2023/04/28 14:24:37;;;;;;;1.40;1.30;;;;;;;;;;5083870;28;20028;-74
2023/04/28 14:27:03;;;;;;;2.42;1.42;;;;;;;;;;5071330;28;20052;-75
2023/04/28 14:29:28;;;;;;;2.00;1.80;;;;;;;;;;5062459;28;20528;-73
2023/04/28 14:31:54;;;;;;;1.58;1.38;;;;;;;;;;5066667;28;20049;-74
2023/04/28 14:34:19;;;;;;;2.55;2.03;;;;;;;;;;5065435;28;20024;-74